PWSweather.com
Personal Weather Stations
Station Observations
KIDNAMPA57
Canyon County Idaho, Nampa, ID 83687

Canyon County IdahoNampa, ID 83687

Lat: 43.587235, Lon: -116.49831979999999

Elevation: 2615

Station Type: Davis Vantage Pro 2

www.rockinglweather.com

High Low Average
Temperature 53.4°F11.9°C 30.3°F-0.9°C 42.0°F5.6°C
Dew Point 35.5°F1.9°C 18.6°F-7.4°C 28.0°F-2.2°C
Winds 12.0 mph 19.3 kmh Calm Calm 2.0 mph SW3.2 kmh SW
Wind Gusts 13.0 mph20.9 kmh -- 6.0 mph9.7 kmh
Humidity 93% 26% 62%
Pressure 30.57 in1035.2 mb 30.34 in1027.4 mb -
Precipitation 0.00 in0.0 mm - -
Hour Temp Dew Point Humidity Winds Wind Gusts Pressure Precip Precip Rate Daily Precip Total
12:00 AM 43.6°F6.4°C 32.2°F0.1°C 64% 4.0 mph NW6.4 kmh NW 9.0 mph14.5 kmh 30.32 in1026.8 mb 0.00 in0.0 mm 0.00 in0.0 mm 0.00 in0.0 mm
12:05 AM 43.4°F6.3°C 32.1°F0.1°C 64% 4.0 mph NW6.4 kmh NW 10.0 mph16.1 kmh 30.32 in1026.8 mb 0.00 in0.0 mm 0.00 in0.0 mm 0.00 in0.0 mm
12:10 AM 43.4°F6.3°C 32.1°F0.1°C 64% 4.0 mph NW6.4 kmh NW 10.0 mph16.1 kmh 30.32 in1026.8 mb 0.00 in0.0 mm 0.00 in0.0 mm 0.00 in0.0 mm
12:15 AM 43.5°F6.4°C 31.8°F-0.1°C 63% 5.0 mph NNW8.0 kmh NNW 10.0 mph16.1 kmh 30.32 in1026.8 mb 0.00 in0.0 mm 0.00 in0.0 mm 0.00 in0.0 mm
12:20 AM 43.3°F6.3°C 32.0°F0.0°C 64% 4.0 mph NW6.4 kmh NW 9.0 mph14.5 kmh 30.33 in1027.1 mb 0.00 in0.0 mm 0.00 in0.0 mm 0.00 in0.0 mm
12:25 AM 43.1°F6.2°C 31.8°F-0.1°C 64% 4.0 mph NW6.4 kmh NW 9.0 mph14.5 kmh 30.33 in1027.1 mb 0.00 in0.0 mm 0.00 in0.0 mm 0.00 in0.0 mm
12:30 AM 42.9°F6.1°C 31.6°F-0.2°C 64% 2.0 mph NW3.2 kmh NW 9.0 mph14.5 kmh 30.33 in1027.1 mb 0.00 in0.0 mm 0.00 in0.0 mm 0.00 in0.0 mm
12:40 AM 42.4°F5.8°C 31.5°F-0.3°C 65% 6.0 mph NW9.7 kmh NW 7.0 mph11.3 kmh 30.33 in1027.1 mb 0.00 in0.0 mm 0.00 in0.0 mm 0.00 in0.0 mm
12:45 AM 42.1°F5.6°C 31.2°F-0.4°C 65% 7.0 mph WNW11.3 kmh WNW 7.0 mph11.3 kmh 30.33 in1027.1 mb 0.00 in0.0 mm 0.00 in0.0 mm 0.00 in0.0 mm
12:50 AM 41.9°F5.5°C 31.4°F-0.3°C 66% 5.0 mph NW8.0 kmh NW 7.0 mph11.3 kmh 30.33 in1027.1 mb 0.00 in0.0 mm 0.00 in0.0 mm 0.00 in0.0 mm
12:55 AM 41.7°F5.4°C 31.2°F-0.4°C 66% 4.0 mph NW6.4 kmh NW 8.0 mph12.9 kmh 30.33 in1027.1 mb 0.00 in0.0 mm 0.00 in0.0 mm 0.00 in0.0 mm
01:00 AM 41.5°F5.3°C 31.4°F-0.3°C 67% 6.0 mph NW9.7 kmh NW 8.0 mph12.9 kmh 30.34 in1027.4 mb 0.00 in0.0 mm 0.00 in0.0 mm 0.00 in0.0 mm
01:05 AM 41.2°F5.1°C 31.1°F-0.5°C 67% 2.0 mph NW3.2 kmh NW 5.0 mph8.0 kmh 30.34 in1027.4 mb 0.00 in0.0 mm 0.00 in0.0 mm 0.00 in0.0 mm
01:10 AM 41.2°F5.1°C 31.1°F-0.5°C 67% 4.0 mph NW6.4 kmh NW 5.0 mph8.0 kmh 30.34 in1027.4 mb 0.00 in0.0 mm 0.00 in0.0 mm 0.00 in0.0 mm
01:15 AM 41.3°F5.2°C 31.2°F-0.4°C 67% 5.0 mph NW8.0 kmh NW 6.0 mph9.7 kmh 30.34 in1027.4 mb 0.00 in0.0 mm 0.00 in0.0 mm 0.00 in0.0 mm
01:20 AM 41.3°F5.2°C 30.8°F-0.7°C 66% 3.0 mph NNW4.8 kmh NNW 5.0 mph8.0 kmh 30.35 in1027.8 mb 0.00 in0.0 mm 0.00 in0.0 mm 0.00 in0.0 mm
01:25 AM 41.1°F5.1°C 31.0°F-0.6°C 67% 3.0 mph N4.8 kmh N 6.0 mph9.7 kmh 30.35 in1027.8 mb 0.00 in0.0 mm 0.00 in0.0 mm 0.00 in0.0 mm
01:30 AM 40.6°F4.8°C 30.5°F-0.8°C 67% 3.0 mph N4.8 kmh N 6.0 mph9.7 kmh 30.36 in1028.1 mb 0.00 in0.0 mm 0.00 in0.0 mm 0.00 in0.0 mm
01:35 AM 40.1°F4.5°C 30.8°F-0.7°C 69% 5.0 mph E8.0 kmh E 9.0 mph14.5 kmh 30.36 in1028.1 mb 0.00 in0.0 mm 0.00 in0.0 mm 0.00 in0.0 mm
01:40 AM 39.9°F4.4°C 30.6°F-0.8°C 69% 2.0 mph E3.2 kmh E 9.0 mph14.5 kmh 30.36 in1028.1 mb 0.00 in0.0 mm 0.00 in0.0 mm 0.00 in0.0 mm
01:45 AM 39.8°F4.3°C 30.5°F-0.8°C 69% 2.0 mph E3.2 kmh E 9.0 mph14.5 kmh 30.37 in1028.4 mb 0.00 in0.0 mm 0.00 in0.0 mm 0.00 in0.0 mm
01:50 AM 40.0°F4.4°C 31.0°F-0.6°C 70% 6.0 mph ESE9.7 kmh ESE 10.0 mph16.1 kmh 30.37 in1028.4 mb 0.00 in0.0 mm 0.00 in0.0 mm 0.00 in0.0 mm
01:55 AM 40.5°F4.7°C 33.2°F0.7°C 75% 6.0 mph SE9.7 kmh SE 11.0 mph17.7 kmh 30.37 in1028.4 mb 0.00 in0.0 mm 0.00 in0.0 mm 0.00 in0.0 mm
02:00 AM 40.6°F4.8°C 33.6°F0.9°C 76% 7.0 mph SSE11.3 kmh SSE 11.0 mph17.7 kmh 30.38 in1028.8 mb 0.00 in0.0 mm 0.00 in0.0 mm 0.00 in0.0 mm
02:05 AM 40.4°F4.7°C 33.5°F0.8°C 76% 6.0 mph ESE9.7 kmh ESE 10.0 mph16.1 kmh 30.38 in1028.8 mb 0.00 in0.0 mm 0.00 in0.0 mm 0.00 in0.0 mm
02:10 AM 40.2°F4.6°C 33.6°F0.9°C 77% 5.0 mph E8.0 kmh E 10.0 mph16.1 kmh 30.38 in1028.8 mb 0.00 in0.0 mm 0.00 in0.0 mm 0.00 in0.0 mm
02:15 AM 39.9°F4.4°C 33.6°F0.9°C 78% 3.0 mph E4.8 kmh E 11.0 mph17.7 kmh 30.38 in1028.8 mb 0.00 in0.0 mm 0.00 in0.0 mm 0.00 in0.0 mm
02:20 AM 39.6°F4.2°C 33.3°F0.7°C 78% 5.0 mph E8.0 kmh E 10.0 mph16.1 kmh 30.38 in1028.8 mb 0.00 in0.0 mm 0.00 in0.0 mm 0.00 in0.0 mm
02:25 AM 39.4°F4.1°C 33.4°F0.8°C 79% 8.0 mph SE12.9 kmh SE 13.0 mph20.9 kmh 30.38 in1028.8 mb 0.00 in0.0 mm 0.00 in0.0 mm 0.00 in0.0 mm
02:30 AM 39.3°F4.1°C 33.3°F0.7°C 79% 5.0 mph SE8.0 kmh SE 13.0 mph20.9 kmh 30.38 in1028.8 mb 0.00 in0.0 mm 0.00 in0.0 mm 0.00 in0.0 mm
02:35 AM 39.2°F4.0°C 33.3°F0.7°C 79% 12.0 mph SSE19.3 kmh SSE 12.0 mph19.3 kmh 30.39 in1029.1 mb 0.00 in0.0 mm 0.00 in0.0 mm 0.00 in0.0 mm
02:40 AM 38.9°F3.8°C 33.3°F0.7°C 80% 6.0 mph SE9.7 kmh SE 12.0 mph19.3 kmh 30.39 in1029.1 mb 0.00 in0.0 mm 0.00 in0.0 mm 0.00 in0.0 mm
02:45 AM 38.5°F3.6°C 32.9°F0.5°C 80% 6.0 mph SE9.7 kmh SE 12.0 mph19.3 kmh 30.39 in1029.1 mb 0.00 in0.0 mm 0.00 in0.0 mm 0.00 in0.0 mm
02:50 AM 38.3°F3.5°C 33.0°F0.6°C 81% 6.0 mph SE9.7 kmh SE 9.0 mph14.5 kmh 30.40 in1029.5 mb 0.00 in0.0 mm 0.00 in0.0 mm 0.00 in0.0 mm
02:55 AM 38.0°F3.3°C 33.0°F0.6°C 82% 7.0 mph E11.3 kmh E 9.0 mph14.5 kmh 30.40 in1029.5 mb 0.00 in0.0 mm 0.00 in0.0 mm 0.00 in0.0 mm
03:00 AM 37.7°F3.2°C 32.7°F0.4°C 82% 5.0 mph E8.0 kmh E 9.0 mph14.5 kmh 30.40 in1029.5 mb 0.00 in0.0 mm 0.00 in0.0 mm 0.00 in0.0 mm
03:05 AM 37.6°F3.1°C 32.9°F0.5°C 83% 4.0 mph SSE6.4 kmh SSE 7.0 mph11.3 kmh 30.41 in1029.8 mb 0.00 in0.0 mm 0.00 in0.0 mm 0.00 in0.0 mm
03:10 AM 37.6°F3.1°C 32.9°F0.5°C 83% 3.0 mph E4.8 kmh E 7.0 mph11.3 kmh 30.41 in1029.8 mb 0.00 in0.0 mm 0.00 in0.0 mm 0.00 in0.0 mm
03:15 AM 37.6°F3.1°C 32.9°F0.5°C 83% 2.0 mph ESE3.2 kmh ESE 9.0 mph14.5 kmh 30.41 in1029.8 mb 0.00 in0.0 mm 0.00 in0.0 mm 0.00 in0.0 mm
03:20 AM 37.4°F3.0°C 32.7°F0.4°C 83% 1.0 mph ESE1.6 kmh ESE 10.0 mph16.1 kmh 30.41 in1029.8 mb 0.00 in0.0 mm 0.00 in0.0 mm 0.00 in0.0 mm
03:25 AM 37.4°F3.0°C 32.7°F0.4°C 83% 4.0 mph SE6.4 kmh SE 10.0 mph16.1 kmh 30.41 in1029.8 mb 0.00 in0.0 mm 0.00 in0.0 mm 0.00 in0.0 mm
03:30 AM 37.3°F2.9°C 32.6°F0.3°C 83% 2.0 mph ESE3.2 kmh ESE 10.0 mph16.1 kmh 30.42 in1030.1 mb 0.00 in0.0 mm 0.00 in0.0 mm 0.00 in0.0 mm
03:35 AM 37.2°F2.9°C 32.5°F0.3°C 83% 2.0 mph SE3.2 kmh SE 11.0 mph17.7 kmh 30.42 in1030.1 mb 0.00 in0.0 mm 0.00 in0.0 mm 0.00 in0.0 mm
03:40 AM 37.2°F2.9°C 32.5°F0.3°C 83% 3.0 mph SE4.8 kmh SE 11.0 mph17.7 kmh 30.42 in1030.1 mb 0.00 in0.0 mm 0.00 in0.0 mm 0.00 in0.0 mm
03:45 AM 37.2°F2.9°C 32.8°F0.4°C 84% 6.0 mph SE9.7 kmh SE 11.0 mph17.7 kmh 30.42 in1030.1 mb 0.00 in0.0 mm 0.00 in0.0 mm 0.00 in0.0 mm
03:50 AM 37.3°F2.9°C 32.6°F0.3°C 83% 8.0 mph ESE12.9 kmh ESE 12.0 mph19.3 kmh 30.42 in1030.1 mb 0.00 in0.0 mm 0.00 in0.0 mm 0.00 in0.0 mm
03:55 AM 37.1°F2.8°C 32.4°F0.2°C 83% 7.0 mph E11.3 kmh E 12.0 mph19.3 kmh 30.42 in1030.1 mb 0.00 in0.0 mm 0.00 in0.0 mm 0.00 in0.0 mm
04:00 AM 37.0°F2.8°C 32.3°F0.2°C 83% 4.0 mph E6.4 kmh E 12.0 mph19.3 kmh 30.42 in1030.1 mb 0.00 in0.0 mm 0.00 in0.0 mm 0.00 in0.0 mm
04:05 AM 36.8°F2.7°C 32.1°F0.1°C 83% 7.0 mph ESE11.3 kmh ESE 9.0 mph14.5 kmh 30.42 in1030.1 mb 0.00 in0.0 mm 0.00 in0.0 mm 0.00 in0.0 mm
04:10 AM 36.7°F2.6°C 32.0°F0.0°C 83% 4.0 mph E6.4 kmh E 11.0 mph17.7 kmh 30.42 in1030.1 mb 0.00 in0.0 mm 0.00 in0.0 mm 0.00 in0.0 mm
04:15 AM 36.7°F2.6°C 32.0°F0.0°C 83% 4.0 mph E6.4 kmh E 11.0 mph17.7 kmh 30.42 in1030.1 mb 0.00 in0.0 mm 0.00 in0.0 mm 0.00 in0.0 mm
04:20 AM 36.6°F2.6°C 31.9°F-0.1°C 83% 5.0 mph SE8.0 kmh SE 9.0 mph14.5 kmh 30.42 in1030.1 mb 0.00 in0.0 mm 0.00 in0.0 mm 0.00 in0.0 mm
04:25 AM 36.7°F2.6°C 32.0°F0.0°C 83% 5.0 mph E8.0 kmh E 9.0 mph14.5 kmh 30.42 in1030.1 mb 0.00 in0.0 mm 0.00 in0.0 mm 0.00 in0.0 mm
04:30 AM 36.7°F2.6°C 32.0°F0.0°C 83% 2.0 mph ESE3.2 kmh ESE 9.0 mph14.5 kmh 30.42 in1030.1 mb 0.00 in0.0 mm 0.00 in0.0 mm 0.00 in0.0 mm
04:35 AM 36.6°F2.6°C 31.9°F-0.1°C 83% 4.0 mph ESE6.4 kmh ESE 8.0 mph12.9 kmh 30.42 in1030.1 mb 0.00 in0.0 mm 0.00 in0.0 mm 0.00 in0.0 mm
04:40 AM 36.5°F2.5°C 31.8°F-0.1°C 83% 4.0 mph ESE6.4 kmh ESE 8.0 mph12.9 kmh 30.42 in1030.1 mb 0.00 in0.0 mm 0.00 in0.0 mm 0.00 in0.0 mm
04:45 AM 36.5°F2.5°C 31.8°F-0.1°C 83% 1.0 mph ESE1.6 kmh ESE 8.0 mph12.9 kmh 30.43 in1030.5 mb 0.00 in0.0 mm 0.00 in0.0 mm 0.00 in0.0 mm
04:50 AM 36.6°F2.6°C 31.9°F-0.1°C 83% 3.0 mph SE4.8 kmh SE 6.0 mph9.7 kmh 30.43 in1030.5 mb 0.00 in0.0 mm 0.00 in0.0 mm 0.00 in0.0 mm
04:55 AM 36.6°F2.6°C 31.9°F-0.1°C 83% 1.0 mph SE1.6 kmh SE 6.0 mph9.7 kmh 30.43 in1030.5 mb 0.00 in0.0 mm 0.00 in0.0 mm 0.00 in0.0 mm
05:00 AM 36.4°F2.4°C 31.7°F-0.2°C 83% 5.0 mph E8.0 kmh E 6.0 mph9.7 kmh 30.43 in1030.5 mb 0.00 in0.0 mm 0.00 in0.0 mm 0.00 in0.0 mm
05:05 AM 36.2°F2.3°C 31.5°F-0.3°C 83% 3.0 mph E4.8 kmh E 4.0 mph6.4 kmh 30.43 in1030.5 mb 0.00 in0.0 mm 0.00 in0.0 mm 0.00 in0.0 mm
05:10 AM 36.0°F2.2°C 31.6°F-0.2°C 84% 3.0 mph E4.8 kmh E 4.0 mph6.4 kmh 30.43 in1030.5 mb 0.00 in0.0 mm 0.00 in0.0 mm 0.00 in0.0 mm
05:15 AM 35.7°F2.1°C 31.4°F-0.3°C 84% 3.0 mph E4.8 kmh E 4.0 mph6.4 kmh 30.43 in1030.5 mb 0.00 in0.0 mm 0.00 in0.0 mm 0.00 in0.0 mm
05:20 AM 35.5°F1.9°C 31.2°F-0.4°C 84% 2.0 mph E3.2 kmh E 4.0 mph6.4 kmh 30.43 in1030.5 mb 0.00 in0.0 mm 0.00 in0.0 mm 0.00 in0.0 mm
05:25 AM 35.1°F1.7°C 31.1°F-0.5°C 85% 3.0 mph E4.8 kmh E 4.0 mph6.4 kmh 30.44 in1030.8 mb 0.00 in0.0 mm 0.00 in0.0 mm 0.00 in0.0 mm
05:30 AM 34.8°F1.6°C 30.8°F-0.7°C 85% 2.0 mph E3.2 kmh E 4.0 mph6.4 kmh 30.44 in1030.8 mb 0.00 in0.0 mm 0.00 in0.0 mm 0.00 in0.0 mm
05:35 AM 34.4°F1.3°C 30.7°F-0.7°C 86% 1.0 mph E1.6 kmh E 3.0 mph4.8 kmh 30.44 in1030.8 mb 0.00 in0.0 mm 0.00 in0.0 mm 0.00 in0.0 mm
05:40 AM 34.1°F1.2°C 30.4°F-0.9°C 86% Calm Calm 3.0 mph4.8 kmh 30.44 in1030.8 mb 0.00 in0.0 mm 0.00 in0.0 mm 0.00 in0.0 mm
05:45 AM 34.0°F1.1°C 30.6°F-0.8°C 87% Calm Calm 3.0 mph4.8 kmh 30.44 in1030.8 mb 0.00 in0.0 mm 0.00 in0.0 mm 0.00 in0.0 mm
05:50 AM 33.8°F1.0°C 30.4°F-0.9°C 87% 2.0 mph E3.2 kmh E 2.0 mph3.2 kmh 30.44 in1030.8 mb 0.00 in0.0 mm 0.00 in0.0 mm 0.00 in0.0 mm
05:55 AM 33.6°F0.9°C 30.4°F-0.9°C 88% Calm Calm 2.0 mph3.2 kmh 30.45 in1031.2 mb 0.00 in0.0 mm 0.00 in0.0 mm 0.00 in0.0 mm
06:00 AM 33.2°F0.7°C 30.0°F-1.1°C 88% Calm Calm 2.0 mph3.2 kmh 30.45 in1031.2 mb 0.00 in0.0 mm 0.00 in0.0 mm 0.00 in0.0 mm
06:05 AM 32.6°F0.3°C 29.5°F-1.4°C 88% Calm Calm -- 30.45 in1031.2 mb 0.00 in0.0 mm 0.00 in0.0 mm 0.00 in0.0 mm
06:10 AM 32.7°F0.4°C 29.8°F-1.2°C 89% Calm Calm -- 30.45 in1031.2 mb 0.00 in0.0 mm 0.00 in0.0 mm 0.00 in0.0 mm
06:15 AM 32.5°F0.3°C 29.6°F-1.3°C 89% Calm Calm -- 30.45 in1031.2 mb 0.00 in0.0 mm 0.00 in0.0 mm 0.00 in0.0 mm
06:20 AM 32.0°F0.0°C 29.1°F-1.6°C 89% Calm Calm -- 30.46 in1031.5 mb 0.00 in0.0 mm 0.00 in0.0 mm 0.00 in0.0 mm
06:25 AM 31.8°F-0.1°C 29.2°F-1.6°C 90% Calm Calm -- 30.46 in1031.5 mb 0.00 in0.0 mm 0.00 in0.0 mm 0.00 in0.0 mm
06:30 AM 31.6°F-0.2°C 29.0°F-1.7°C 90% 1.0 mph E1.6 kmh E 1.0 mph1.6 kmh 30.47 in1031.8 mb 0.00 in0.0 mm 0.00 in0.0 mm 0.00 in0.0 mm
06:35 AM 31.4°F-0.3°C 28.8°F-1.8°C 90% Calm Calm 1.0 mph1.6 kmh 30.47 in1031.8 mb 0.00 in0.0 mm 0.00 in0.0 mm 0.00 in0.0 mm
06:40 AM 31.4°F-0.3°C 29.1°F-1.6°C 91% Calm Calm 1.0 mph1.6 kmh 30.47 in1031.8 mb 0.00 in0.0 mm 0.00 in0.0 mm 0.00 in0.0 mm
06:45 AM 31.5°F-0.3°C 29.2°F-1.6°C 91% 1.0 mph E1.6 kmh E 1.0 mph1.6 kmh 30.47 in1031.8 mb 0.00 in0.0 mm 0.00 in0.0 mm 0.00 in0.0 mm
06:50 AM 31.4°F-0.3°C 29.1°F-1.6°C 91% Calm Calm 2.0 mph3.2 kmh 30.47 in1031.8 mb 0.00 in0.0 mm 0.00 in0.0 mm 0.00 in0.0 mm
06:55 AM 31.2°F-0.4°C 28.9°F-1.7°C 91% Calm Calm 2.0 mph3.2 kmh 30.47 in1031.8 mb 0.00 in0.0 mm 0.00 in0.0 mm 0.00 in0.0 mm
07:00 AM 31.3°F-0.4°C 29.0°F-1.7°C 91% Calm Calm 2.0 mph3.2 kmh 30.47 in1031.8 mb 0.00 in0.0 mm 0.00 in0.0 mm 0.00 in0.0 mm
07:05 AM 31.2°F-0.4°C 28.9°F-1.7°C 91% Calm Calm -- 30.48 in1032.2 mb 0.00 in0.0 mm 0.00 in0.0 mm 0.00 in0.0 mm
07:20 AM 31.0°F-0.6°C 29.0°F-1.7°C 92% Calm Calm -- 30.48 in1032.2 mb 0.00 in0.0 mm 0.00 in0.0 mm 0.00 in0.0 mm
07:35 AM 30.4°F-0.9°C 28.4°F-2.0°C 92% Calm Calm 1.0 mph1.6 kmh 30.47 in1031.8 mb 0.00 in0.0 mm 0.00 in0.0 mm 0.00 in0.0 mm
07:40 AM 30.3°F-0.9°C 28.3°F-2.1°C 92% Calm Calm 1.0 mph1.6 kmh 30.48 in1032.2 mb 0.00 in0.0 mm 0.00 in0.0 mm 0.00 in0.0 mm
07:45 AM 30.3°F-0.9°C 28.3°F-2.1°C 92% Calm Calm 1.0 mph1.6 kmh 30.48 in1032.2 mb 0.00 in0.0 mm 0.00 in0.0 mm 0.00 in0.0 mm
07:50 AM 30.4°F-0.9°C 28.4°F-2.0°C 92% 1.0 mph E1.6 kmh E 1.0 mph1.6 kmh 30.48 in1032.2 mb 0.00 in0.0 mm 0.00 in0.0 mm 0.00 in0.0 mm
07:55 AM 30.5°F-0.8°C 28.5°F-1.9°C 92% 1.0 mph E1.6 kmh E 2.0 mph3.2 kmh 30.47 in1031.8 mb 0.00 in0.0 mm 0.00 in0.0 mm 0.00 in0.0 mm
08:00 AM 30.4°F-0.9°C 28.4°F-2.0°C 92% 1.0 mph E1.6 kmh E 3.0 mph4.8 kmh 30.48 in1032.2 mb 0.00 in0.0 mm 0.00 in0.0 mm 0.00 in0.0 mm
08:05 AM 30.6°F-0.8°C 28.6°F-1.9°C 92% 1.0 mph E1.6 kmh E 2.0 mph3.2 kmh 30.48 in1032.2 mb 0.00 in0.0 mm 0.00 in0.0 mm 0.00 in0.0 mm
08:10 AM 30.4°F-0.9°C 28.4°F-2.0°C 92% 1.0 mph E1.6 kmh E 2.0 mph3.2 kmh 30.48 in1032.2 mb 0.00 in0.0 mm 0.00 in0.0 mm 0.00 in0.0 mm
08:15 AM 30.6°F-0.8°C 28.6°F-1.9°C 92% Calm Calm 2.0 mph3.2 kmh 30.48 in1032.2 mb 0.00 in0.0 mm 0.00 in0.0 mm 0.00 in0.0 mm
08:20 AM 30.5°F-0.8°C 28.5°F-1.9°C 92% Calm Calm -- 30.48 in1032.2 mb 0.00 in0.0 mm 0.00 in0.0 mm 0.00 in0.0 mm
08:25 AM 30.4°F-0.9°C 28.4°F-2.0°C 92% Calm Calm 1.0 mph1.6 kmh 30.48 in1032.2 mb 0.00 in0.0 mm 0.00 in0.0 mm 0.00 in0.0 mm
08:30 AM 30.6°F-0.8°C 28.8°F-1.8°C 93% Calm Calm 1.0 mph1.6 kmh 30.49 in1032.5 mb 0.00 in0.0 mm 0.00 in0.0 mm 0.00 in0.0 mm
08:35 AM 30.8°F-0.7°C 29.0°F-1.7°C 93% Calm Calm -- 30.49 in1032.5 mb 0.00 in0.0 mm 0.00 in0.0 mm 0.00 in0.0 mm
08:40 AM 31.1°F-0.5°C 29.3°F-1.5°C 93% 2.0 mph E3.2 kmh E 3.0 mph4.8 kmh 30.49 in1032.5 mb 0.00 in0.0 mm 0.00 in0.0 mm 0.00 in0.0 mm
08:45 AM 30.9°F-0.6°C 29.1°F-1.6°C 93% Calm Calm 3.0 mph4.8 kmh 30.49 in1032.5 mb 0.00 in0.0 mm 0.00 in0.0 mm 0.00 in0.0 mm
08:50 AM 31.1°F-0.5°C 29.3°F-1.5°C 93% Calm Calm -- 30.50 in1032.8 mb 0.00 in0.0 mm 0.00 in0.0 mm 0.00 in0.0 mm
08:55 AM 31.5°F-0.3°C 29.7°F-1.3°C 93% Calm Calm -- 30.50 in1032.8 mb 0.00 in0.0 mm 0.00 in0.0 mm 0.00 in0.0 mm
09:00 AM 32.0°F0.0°C 30.2°F-1.0°C 93% Calm Calm -- 30.50 in1032.8 mb 0.00 in0.0 mm 0.00 in0.0 mm 0.00 in0.0 mm
09:05 AM 32.2°F0.1°C 30.4°F-0.9°C 93% Calm Calm -- 30.50 in1032.8 mb 0.00 in0.0 mm 0.00 in0.0 mm 0.00 in0.0 mm
09:10 AM 32.8°F0.4°C 31.0°F-0.6°C 93% Calm Calm -- 30.50 in1032.8 mb 0.00 in0.0 mm 0.00 in0.0 mm 0.00 in0.0 mm
09:15 AM 33.5°F0.8°C 31.7°F-0.2°C 93% Calm Calm 2.0 mph3.2 kmh 30.50 in1032.8 mb 0.00 in0.0 mm 0.00 in0.0 mm 0.00 in0.0 mm
09:20 AM 34.0°F1.1°C 32.2°F0.1°C 93% Calm Calm -- 30.50 in1032.8 mb 0.00 in0.0 mm 0.00 in0.0 mm 0.00 in0.0 mm
09:25 AM 34.5°F1.4°C 32.4°F0.2°C 92% Calm Calm -- 30.50 in1032.8 mb 0.00 in0.0 mm 0.00 in0.0 mm 0.00 in0.0 mm
09:30 AM 35.2°F1.8°C 33.1°F0.6°C 92% Calm Calm 5.0 mph8.0 kmh 30.51 in1033.2 mb 0.00 in0.0 mm 0.00 in0.0 mm 0.00 in0.0 mm
09:40 AM 36.3°F2.4°C 33.9°F1.1°C 91% 2.0 mph NW3.2 kmh NW 4.0 mph6.4 kmh 30.51 in1033.2 mb 0.00 in0.0 mm 0.00 in0.0 mm 0.00 in0.0 mm
09:45 AM 36.8°F2.7°C 34.2°F1.2°C 90% 2.0 mph WSW3.2 kmh WSW 5.0 mph8.0 kmh 30.51 in1033.2 mb 0.00 in0.0 mm 0.00 in0.0 mm 0.00 in0.0 mm
09:50 AM 37.2°F2.9°C 34.5°F1.4°C 90% 5.0 mph NW8.0 kmh NW 6.0 mph9.7 kmh 30.51 in1033.2 mb 0.00 in0.0 mm 0.00 in0.0 mm 0.00 in0.0 mm
10:00 AM 38.3°F3.5°C 34.8°F1.6°C 87% 3.0 mph W4.8 kmh W 7.0 mph11.3 kmh 30.52 in1033.5 mb 0.00 in0.0 mm 0.00 in0.0 mm 0.00 in0.0 mm
10:05 AM 38.6°F3.7°C 34.8°F1.6°C 86% Calm Calm 8.0 mph12.9 kmh 30.52 in1033.5 mb 0.00 in0.0 mm 0.00 in0.0 mm 0.00 in0.0 mm
10:10 AM 38.9°F3.8°C 34.5°F1.4°C 84% Calm Calm 8.0 mph12.9 kmh 30.52 in1033.5 mb 0.00 in0.0 mm 0.00 in0.0 mm 0.00 in0.0 mm
10:15 AM 39.0°F3.9°C 34.3°F1.3°C 83% 5.0 mph W8.0 kmh W 8.0 mph12.9 kmh 30.52 in1033.5 mb 0.00 in0.0 mm 0.00 in0.0 mm 0.00 in0.0 mm
10:20 AM 39.2°F4.0°C 34.2°F1.2°C 82% 3.0 mph W4.8 kmh W 4.0 mph6.4 kmh 30.52 in1033.5 mb 0.00 in0.0 mm 0.00 in0.0 mm 0.00 in0.0 mm
10:25 AM 39.8°F4.3°C 34.8°F1.6°C 82% 5.0 mph NW8.0 kmh NW 6.0 mph9.7 kmh 30.53 in1033.9 mb 0.00 in0.0 mm 0.00 in0.0 mm 0.00 in0.0 mm
10:30 AM 40.1°F4.5°C 34.8°F1.6°C 81% 4.0 mph NW6.4 kmh NW 6.0 mph9.7 kmh 30.53 in1033.9 mb 0.00 in0.0 mm 0.00 in0.0 mm 0.00 in0.0 mm
10:35 AM 40.5°F4.7°C 35.1°F1.7°C 81% Calm Calm 7.0 mph11.3 kmh 30.52 in1033.5 mb 0.00 in0.0 mm 0.00 in0.0 mm 0.00 in0.0 mm
10:40 AM 41.1°F5.1°C 35.4°F1.9°C 80% 5.0 mph NW8.0 kmh NW 7.0 mph11.3 kmh 30.52 in1033.5 mb 0.00 in0.0 mm 0.00 in0.0 mm 0.00 in0.0 mm
10:45 AM 41.7°F5.4°C 35.0°F1.7°C 77% 4.0 mph NW6.4 kmh NW 7.0 mph11.3 kmh 30.52 in1033.5 mb 0.00 in0.0 mm 0.00 in0.0 mm 0.00 in0.0 mm
10:50 AM 41.9°F5.5°C 34.9°F1.6°C 76% 4.0 mph WNW6.4 kmh WNW 9.0 mph14.5 kmh 30.52 in1033.5 mb 0.00 in0.0 mm 0.00 in0.0 mm 0.00 in0.0 mm
10:55 AM 42.0°F5.6°C 34.3°F1.3°C 74% 2.0 mph WNW3.2 kmh WNW 9.0 mph14.5 kmh 30.52 in1033.5 mb 0.00 in0.0 mm 0.00 in0.0 mm 0.00 in0.0 mm
11:00 AM 42.6°F5.9°C 34.9°F1.6°C 74% 4.0 mph NW6.4 kmh NW 9.0 mph14.5 kmh 30.52 in1033.5 mb 0.00 in0.0 mm 0.00 in0.0 mm 0.00 in0.0 mm
11:05 AM 42.7°F5.9°C 34.7°F1.5°C 73% 3.0 mph WSW4.8 kmh WSW 7.0 mph11.3 kmh 30.53 in1033.9 mb 0.00 in0.0 mm 0.00 in0.0 mm 0.00 in0.0 mm
11:10 AM 43.2°F6.2°C 35.5°F1.9°C 74% 2.0 mph W3.2 kmh W 7.0 mph11.3 kmh 30.53 in1033.9 mb 0.00 in0.0 mm 0.00 in0.0 mm 0.00 in0.0 mm
11:15 AM 43.4°F6.3°C 35.0°F1.7°C 72% 5.0 mph WSW8.0 kmh WSW 8.0 mph12.9 kmh 30.53 in1033.9 mb 0.00 in0.0 mm 0.00 in0.0 mm 0.00 in0.0 mm
11:20 AM 43.9°F6.6°C 35.1°F1.7°C 71% 7.0 mph NW11.3 kmh NW 8.0 mph12.9 kmh 30.53 in1033.9 mb 0.00 in0.0 mm 0.00 in0.0 mm 0.00 in0.0 mm
11:25 AM 44.9°F7.2°C 33.1°F0.6°C 63% 4.0 mph W6.4 kmh W 8.0 mph12.9 kmh 30.53 in1033.9 mb 0.00 in0.0 mm 0.00 in0.0 mm 0.00 in0.0 mm
11:30 AM 45.5°F7.5°C 32.9°F0.5°C 61% 7.0 mph NW11.3 kmh NW 11.0 mph17.7 kmh 30.53 in1033.9 mb 0.00 in0.0 mm 0.00 in0.0 mm 0.00 in0.0 mm
11:35 AM 46.0°F7.8°C 32.9°F0.5°C 60% 6.0 mph NW9.7 kmh NW 10.0 mph16.1 kmh 30.52 in1033.5 mb 0.00 in0.0 mm 0.00 in0.0 mm 0.00 in0.0 mm
11:40 AM 45.9°F7.7°C 32.0°F0.0°C 58% 8.0 mph NW12.9 kmh NW 10.0 mph16.1 kmh 30.52 in1033.5 mb 0.00 in0.0 mm 0.00 in0.0 mm 0.00 in0.0 mm
11:45 AM 46.3°F7.9°C 31.0°F-0.6°C 55% 7.0 mph N11.3 kmh N 12.0 mph19.3 kmh 30.52 in1033.5 mb 0.00 in0.0 mm 0.00 in0.0 mm 0.00 in0.0 mm
11:55 AM 47.4°F8.6°C 31.1°F-0.5°C 53% 8.0 mph NW12.9 kmh NW 13.0 mph20.9 kmh 30.52 in1033.5 mb 0.00 in0.0 mm 0.00 in0.0 mm 0.00 in0.0 mm
12:00 PM 47.5°F8.6°C 31.2°F-0.4°C 53% 5.0 mph WNW8.0 kmh WNW 13.0 mph20.9 kmh 30.52 in1033.5 mb 0.00 in0.0 mm 0.00 in0.0 mm 0.00 in0.0 mm
12:05 PM 47.9°F8.8°C 31.6°F-0.2°C 53% 6.0 mph NW9.7 kmh NW 11.0 mph17.7 kmh 30.52 in1033.5 mb 0.00 in0.0 mm 0.00 in0.0 mm 0.00 in0.0 mm
12:10 PM 48.2°F9.0°C 30.9°F-0.6°C 51% 8.0 mph NW12.9 kmh NW 11.0 mph17.7 kmh 30.52 in1033.5 mb 0.00 in0.0 mm 0.00 in0.0 mm 0.00 in0.0 mm
12:15 PM 48.2°F9.0°C 30.9°F-0.6°C 51% 3.0 mph NW4.8 kmh NW 12.0 mph19.3 kmh 30.52 in1033.5 mb 0.00 in0.0 mm 0.00 in0.0 mm 0.00 in0.0 mm
12:20 PM 48.6°F9.2°C 29.8°F-1.2°C 48% 5.0 mph NW8.0 kmh NW 9.0 mph14.5 kmh 30.52 in1033.5 mb 0.00 in0.0 mm 0.00 in0.0 mm 0.00 in0.0 mm
12:25 PM 49.1°F9.5°C 30.3°F-0.9°C 48% 5.0 mph NW8.0 kmh NW 11.0 mph17.7 kmh 30.52 in1033.5 mb 0.00 in0.0 mm 0.00 in0.0 mm 0.00 in0.0 mm
12:30 PM 49.4°F9.7°C 28.4°F-2.0°C 44% 6.0 mph NW9.7 kmh NW 11.0 mph17.7 kmh 30.52 in1033.5 mb 0.00 in0.0 mm 0.00 in0.0 mm 0.00 in0.0 mm
12:35 PM 49.6°F9.8°C 28.6°F-1.9°C 44% 6.0 mph WNW9.7 kmh WNW 13.0 mph20.9 kmh 30.52 in1033.5 mb 0.00 in0.0 mm 0.00 in0.0 mm 0.00 in0.0 mm
12:40 PM 49.3°F9.6°C 28.3°F-2.1°C 44% 4.0 mph NW6.4 kmh NW 13.0 mph20.9 kmh 30.52 in1033.5 mb 0.00 in0.0 mm 0.00 in0.0 mm 0.00 in0.0 mm
12:45 PM 49.6°F9.8°C 27.5°F-2.5°C 42% 4.0 mph W6.4 kmh W 13.0 mph20.9 kmh 30.52 in1033.5 mb 0.00 in0.0 mm 0.00 in0.0 mm 0.00 in0.0 mm
12:50 PM 50.3°F10.2°C 27.5°F-2.5°C 41% 9.0 mph NW14.5 kmh NW 11.0 mph17.7 kmh 30.52 in1033.5 mb 0.00 in0.0 mm 0.00 in0.0 mm 0.00 in0.0 mm
12:55 PM 50.5°F10.3°C 24.6°F-4.1°C 36% 2.0 mph WSW3.2 kmh WSW 11.0 mph17.7 kmh 30.52 in1033.5 mb 0.00 in0.0 mm 0.00 in0.0 mm 0.00 in0.0 mm
01:00 PM 51.0°F10.6°C 25.7°F-3.5°C 37% 5.0 mph WNW8.0 kmh WNW 11.0 mph17.7 kmh 30.52 in1033.5 mb 0.00 in0.0 mm 0.00 in0.0 mm 0.00 in0.0 mm
01:05 PM 51.0°F10.6°C 25.0°F-3.9°C 36% 3.0 mph NW4.8 kmh NW 7.0 mph11.3 kmh 30.52 in1033.5 mb 0.00 in0.0 mm 0.00 in0.0 mm 0.00 in0.0 mm
01:10 PM 51.3°F10.7°C 23.9°F-4.5°C 34% 7.0 mph NNW11.3 kmh NNW 8.0 mph12.9 kmh 30.52 in1033.5 mb 0.00 in0.0 mm 0.00 in0.0 mm 0.00 in0.0 mm
01:15 PM 50.9°F10.5°C 24.2°F-4.3°C 35% 9.0 mph WNW14.5 kmh WNW 9.0 mph14.5 kmh 30.51 in1033.2 mb 0.00 in0.0 mm 0.00 in0.0 mm 0.00 in0.0 mm
01:20 PM 51.3°F10.7°C 25.3°F-3.7°C 36% 7.0 mph NNW11.3 kmh NNW 8.0 mph12.9 kmh 30.52 in1033.5 mb 0.00 in0.0 mm 0.00 in0.0 mm 0.00 in0.0 mm
01:25 PM 50.9°F10.5°C 23.6°F-4.7°C 34% 2.0 mph W3.2 kmh W 9.0 mph14.5 kmh 30.51 in1033.2 mb 0.00 in0.0 mm 0.00 in0.0 mm 0.00 in0.0 mm
01:30 PM 51.4°F10.8°C 24.0°F-4.4°C 34% 7.0 mph NW11.3 kmh NW 9.0 mph14.5 kmh 30.51 in1033.2 mb 0.00 in0.0 mm 0.00 in0.0 mm 0.00 in0.0 mm
01:35 PM 51.2°F10.7°C 21.6°F-5.8°C 31% Calm Calm 10.0 mph16.1 kmh 30.51 in1033.2 mb 0.00 in0.0 mm 0.00 in0.0 mm 0.00 in0.0 mm
01:40 PM 52.2°F11.2°C 23.3°F-4.8°C 32% 1.0 mph NNW1.6 kmh NNW 10.0 mph16.1 kmh 30.52 in1033.5 mb 0.00 in0.0 mm 0.00 in0.0 mm 0.00 in0.0 mm
01:45 PM 52.5°F11.4°C 22.8°F-5.1°C 31% 7.0 mph NW11.3 kmh NW 10.0 mph16.1 kmh 30.51 in1033.2 mb 0.00 in0.0 mm 0.00 in0.0 mm 0.00 in0.0 mm
01:50 PM 51.9°F11.1°C 23.7°F-4.6°C 33% 6.0 mph NW9.7 kmh NW 8.0 mph12.9 kmh 30.51 in1033.2 mb 0.00 in0.0 mm 0.00 in0.0 mm 0.00 in0.0 mm
01:55 PM 51.2°F10.7°C 21.6°F-5.8°C 31% 4.0 mph NNW6.4 kmh NNW 8.0 mph12.9 kmh 30.51 in1033.2 mb 0.00 in0.0 mm 0.00 in0.0 mm 0.00 in0.0 mm
02:00 PM 51.5°F10.8°C 21.9°F-5.6°C 31% 5.0 mph WSW8.0 kmh WSW 8.0 mph12.9 kmh 30.51 in1033.2 mb 0.00 in0.0 mm 0.00 in0.0 mm 0.00 in0.0 mm
02:05 PM 51.8°F11.0°C 22.9°F-5.1°C 32% 3.0 mph NW4.8 kmh NW 7.0 mph11.3 kmh 30.51 in1033.2 mb 0.00 in0.0 mm 0.00 in0.0 mm 0.00 in0.0 mm
02:10 PM 52.7°F11.5°C 21.4°F-5.9°C 29% 4.0 mph NW6.4 kmh NW 9.0 mph14.5 kmh 30.51 in1033.2 mb 0.00 in0.0 mm 0.00 in0.0 mm 0.00 in0.0 mm
02:15 PM 52.5°F11.4°C 22.0°F-5.6°C 30% 1.0 mph N1.6 kmh N 9.0 mph14.5 kmh 30.51 in1033.2 mb 0.00 in0.0 mm 0.00 in0.0 mm 0.00 in0.0 mm
02:20 PM 53.3°F11.8°C 22.7°F-5.2°C 30% 5.0 mph N8.0 kmh N 8.0 mph12.9 kmh 30.51 in1033.2 mb 0.00 in0.0 mm 0.00 in0.0 mm 0.00 in0.0 mm
02:25 PM 52.5°F11.4°C 18.6°F-7.4°C 26% Calm Calm 8.0 mph12.9 kmh 30.51 in1033.2 mb 0.00 in0.0 mm 0.00 in0.0 mm 0.00 in0.0 mm
02:30 PM 52.5°F11.4°C 22.8°F-5.1°C 31% Calm Calm 8.0 mph12.9 kmh 30.51 in1033.2 mb 0.00 in0.0 mm 0.00 in0.0 mm 0.00 in0.0 mm
02:35 PM 51.9°F11.1°C 23.7°F-4.6°C 33% Calm Calm 2.0 mph3.2 kmh 30.51 in1033.2 mb 0.00 in0.0 mm 0.00 in0.0 mm 0.00 in0.0 mm
02:40 PM 53.1°F11.7°C 24.0°F-4.4°C 32% 5.0 mph NW8.0 kmh NW 7.0 mph11.3 kmh 30.51 in1033.2 mb 0.00 in0.0 mm 0.00 in0.0 mm 0.00 in0.0 mm
02:50 PM 53.1°F11.7°C 21.7°F-5.7°C 29% Calm Calm 4.0 mph6.4 kmh 30.51 in1033.2 mb 0.00 in0.0 mm 0.00 in0.0 mm 0.00 in0.0 mm
03:00 PM 53.2°F11.8°C 22.6°F-5.2°C 30% 4.0 mph NW6.4 kmh NW 9.0 mph14.5 kmh 30.51 in1033.2 mb 0.00 in0.0 mm 0.00 in0.0 mm 0.00 in0.0 mm
03:05 PM 53.4°F11.9°C 22.8°F-5.1°C 30% 2.0 mph NW3.2 kmh NW 7.0 mph11.3 kmh 30.51 in1033.2 mb 0.00 in0.0 mm 0.00 in0.0 mm 0.00 in0.0 mm
03:15 PM 53.0°F11.7°C 20.8°F-6.2°C 28% 2.0 mph W3.2 kmh W 8.0 mph12.9 kmh 30.51 in1033.2 mb 0.00 in0.0 mm 0.00 in0.0 mm 0.00 in0.0 mm
03:25 PM 52.9°F11.6°C 22.3°F-5.4°C 30% 3.0 mph WSW4.8 kmh WSW 8.0 mph12.9 kmh 30.51 in1033.2 mb 0.00 in0.0 mm 0.00 in0.0 mm 0.00 in0.0 mm
03:30 PM 53.2°F11.8°C 22.6°F-5.2°C 30% Calm Calm 8.0 mph12.9 kmh 30.50 in1032.8 mb 0.00 in0.0 mm 0.00 in0.0 mm 0.00 in0.0 mm
03:35 PM 53.0°F11.7°C 21.6°F-5.8°C 29% 4.0 mph WSW6.4 kmh WSW 6.0 mph9.7 kmh 30.51 in1033.2 mb 0.00 in0.0 mm 0.00 in0.0 mm 0.00 in0.0 mm
03:40 PM 52.8°F11.6°C 21.4°F-5.9°C 29% 5.0 mph WSW8.0 kmh WSW 9.0 mph14.5 kmh 30.50 in1032.8 mb 0.00 in0.0 mm 0.00 in0.0 mm 0.00 in0.0 mm
03:55 PM 53.2°F11.8°C 21.0°F-6.1°C 28% Calm Calm 7.0 mph11.3 kmh 30.50 in1032.8 mb 0.00 in0.0 mm 0.00 in0.0 mm 0.00 in0.0 mm
04:00 PM 53.0°F11.7°C 20.8°F-6.2°C 28% 2.0 mph WNW3.2 kmh WNW 7.0 mph11.3 kmh 30.50 in1032.8 mb 0.00 in0.0 mm 0.00 in0.0 mm 0.00 in0.0 mm
04:05 PM 53.0°F11.7°C 20.8°F-6.2°C 28% 3.0 mph W4.8 kmh W 7.0 mph11.3 kmh 30.50 in1032.8 mb 0.00 in0.0 mm 0.00 in0.0 mm 0.00 in0.0 mm
04:10 PM 53.1°F11.7°C 21.7°F-5.7°C 29% 5.0 mph W8.0 kmh W 7.0 mph11.3 kmh 30.50 in1032.8 mb 0.00 in0.0 mm 0.00 in0.0 mm 0.00 in0.0 mm
04:15 PM 52.8°F11.6°C 20.6°F-6.3°C 28% 2.0 mph WSW3.2 kmh WSW 7.0 mph11.3 kmh 30.50 in1032.8 mb 0.00 in0.0 mm 0.00 in0.0 mm 0.00 in0.0 mm
04:20 PM 52.8°F11.6°C 23.8°F-4.6°C 32% Calm Calm 3.0 mph4.8 kmh 30.50 in1032.8 mb 0.00 in0.0 mm 0.00 in0.0 mm 0.00 in0.0 mm
04:25 PM 53.3°F11.8°C 21.9°F-5.6°C 29% 5.0 mph WSW8.0 kmh WSW 5.0 mph8.0 kmh 30.50 in1032.8 mb 0.00 in0.0 mm 0.00 in0.0 mm 0.00 in0.0 mm
04:30 PM 53.2°F11.8°C 21.0°F-6.1°C 28% 5.0 mph WNW8.0 kmh WNW 8.0 mph12.9 kmh 30.50 in1032.8 mb 0.00 in0.0 mm 0.00 in0.0 mm 0.00 in0.0 mm
04:35 PM 52.9°F11.6°C 20.7°F-6.3°C 28% Calm Calm 5.0 mph8.0 kmh 30.50 in1032.8 mb 0.00 in0.0 mm 0.00 in0.0 mm 0.00 in0.0 mm
04:40 PM 52.8°F11.6°C 21.4°F-5.9°C 29% 1.0 mph NW1.6 kmh NW 6.0 mph9.7 kmh 30.50 in1032.8 mb 0.00 in0.0 mm 0.00 in0.0 mm 0.00 in0.0 mm
04:45 PM 52.9°F11.6°C 20.7°F-6.3°C 28% Calm Calm 6.0 mph9.7 kmh 30.50 in1032.8 mb 0.00 in0.0 mm 0.00 in0.0 mm 0.00 in0.0 mm
04:50 PM 52.9°F11.6°C 21.5°F-5.8°C 29% 4.0 mph SW6.4 kmh SW 5.0 mph8.0 kmh 30.50 in1032.8 mb 0.00 in0.0 mm 0.00 in0.0 mm 0.00 in0.0 mm
04:55 PM 52.8°F11.6°C 23.0°F-5.0°C 31% 1.0 mph WNW1.6 kmh WNW 8.0 mph12.9 kmh 30.49 in1032.5 mb 0.00 in0.0 mm 0.00 in0.0 mm 0.00 in0.0 mm
05:00 PM 52.8°F11.6°C 21.4°F-5.9°C 29% 4.0 mph WNW6.4 kmh WNW 9.0 mph14.5 kmh 30.49 in1032.5 mb 0.00 in0.0 mm 0.00 in0.0 mm 0.00 in0.0 mm
05:05 PM 53.3°F11.8°C 21.9°F-5.6°C 29% 1.0 mph W1.6 kmh W 8.0 mph12.9 kmh 30.49 in1032.5 mb 0.00 in0.0 mm 0.00 in0.0 mm 0.00 in0.0 mm
05:10 PM 53.1°F11.7°C 21.7°F-5.7°C 29% 4.0 mph WSW6.4 kmh WSW 9.0 mph14.5 kmh 30.50 in1032.8 mb 0.00 in0.0 mm 0.00 in0.0 mm 0.00 in0.0 mm
05:15 PM 52.9°F11.6°C 21.5°F-5.8°C 29% 1.0 mph WNW1.6 kmh WNW 9.0 mph14.5 kmh 30.49 in1032.5 mb 0.00 in0.0 mm 0.00 in0.0 mm 0.00 in0.0 mm
05:20 PM 52.8°F11.6°C 21.4°F-5.9°C 29% 2.0 mph W3.2 kmh W 9.0 mph14.5 kmh 30.50 in1032.8 mb 0.00 in0.0 mm 0.00 in0.0 mm 0.00 in0.0 mm
05:25 PM 52.9°F11.6°C 20.7°F-6.3°C 28% 3.0 mph WNW4.8 kmh WNW 9.0 mph14.5 kmh 30.49 in1032.5 mb 0.00 in0.0 mm 0.00 in0.0 mm 0.00 in0.0 mm
05:30 PM 52.9°F11.6°C 23.1°F-4.9°C 31% 4.0 mph WNW6.4 kmh WNW 9.0 mph14.5 kmh 30.49 in1032.5 mb 0.00 in0.0 mm 0.00 in0.0 mm 0.00 in0.0 mm
05:35 PM 52.9°F11.6°C 21.5°F-5.8°C 29% Calm Calm 6.0 mph9.7 kmh 30.50 in1032.8 mb 0.00 in0.0 mm 0.00 in0.0 mm 0.00 in0.0 mm
05:40 PM 52.6°F11.4°C 22.1°F-5.5°C 30% 4.0 mph NW6.4 kmh NW 6.0 mph9.7 kmh 30.50 in1032.8 mb 0.00 in0.0 mm 0.00 in0.0 mm 0.00 in0.0 mm
05:45 PM 52.4°F11.3°C 20.3°F-6.5°C 28% 1.0 mph WNW1.6 kmh WNW 6.0 mph9.7 kmh 30.49 in1032.5 mb 0.00 in0.0 mm 0.00 in0.0 mm 0.00 in0.0 mm
05:50 PM 52.5°F11.4°C 22.8°F-5.1°C 31% 1.0 mph WNW1.6 kmh WNW 4.0 mph6.4 kmh 30.49 in1032.5 mb 0.00 in0.0 mm 0.00 in0.0 mm 0.00 in0.0 mm
05:55 PM 52.2°F11.2°C 22.5°F-5.3°C 31% 2.0 mph WNW3.2 kmh WNW 7.0 mph11.3 kmh 30.50 in1032.8 mb 0.00 in0.0 mm 0.00 in0.0 mm 0.00 in0.0 mm
06:05 PM 52.1°F11.2°C 21.6°F-5.8°C 30% 1.0 mph WSW1.6 kmh WSW 5.0 mph8.0 kmh 30.50 in1032.8 mb 0.00 in0.0 mm 0.00 in0.0 mm 0.00 in0.0 mm
06:10 PM 51.6°F10.9°C 23.5°F-4.7°C 33% Calm Calm 5.0 mph8.0 kmh 30.50 in1032.8 mb 0.00 in0.0 mm 0.00 in0.0 mm 0.00 in0.0 mm
06:15 PM 51.4°F10.8°C 22.6°F-5.2°C 32% 5.0 mph W8.0 kmh W 7.0 mph11.3 kmh 30.50 in1032.8 mb 0.00 in0.0 mm 0.00 in0.0 mm 0.00 in0.0 mm
06:20 PM 51.0°F10.6°C 22.2°F-5.4°C 32% 1.0 mph WSW1.6 kmh WSW 5.0 mph8.0 kmh 30.50 in1032.8 mb 0.00 in0.0 mm 0.00 in0.0 mm 0.00 in0.0 mm
06:25 PM 50.9°F10.5°C 23.6°F-4.7°C 34% 1.0 mph WSW1.6 kmh WSW 5.0 mph8.0 kmh 30.50 in1032.8 mb 0.00 in0.0 mm 0.00 in0.0 mm 0.00 in0.0 mm
06:30 PM 50.5°F10.3°C 23.2°F-4.9°C 34% Calm Calm 5.0 mph8.0 kmh 30.50 in1032.8 mb 0.00 in0.0 mm 0.00 in0.0 mm 0.00 in0.0 mm
06:35 PM 50.0°F10.0°C 24.8°F-4.0°C 37% 1.0 mph WSW1.6 kmh WSW 2.0 mph3.2 kmh 30.50 in1032.8 mb 0.00 in0.0 mm 0.00 in0.0 mm 0.00 in0.0 mm
06:40 PM 49.6°F9.8°C 23.8°F-4.6°C 36% Calm Calm 5.0 mph8.0 kmh 30.50 in1032.8 mb 0.00 in0.0 mm 0.00 in0.0 mm 0.00 in0.0 mm
06:45 PM 49.4°F9.7°C 24.2°F-4.3°C 37% Calm Calm 5.0 mph8.0 kmh 30.50 in1032.8 mb 0.00 in0.0 mm 0.00 in0.0 mm 0.00 in0.0 mm
06:50 PM 48.9°F9.4°C 24.4°F-4.2°C 38% Calm Calm -- 30.50 in1032.8 mb 0.00 in0.0 mm 0.00 in0.0 mm 0.00 in0.0 mm
06:55 PM 48.3°F9.1°C 24.5°F-4.2°C 39% Calm Calm -- 30.50 in1032.8 mb 0.00 in0.0 mm 0.00 in0.0 mm 0.00 in0.0 mm
07:00 PM 47.6°F8.7°C 25.1°F-3.8°C 41% Calm Calm -- 30.50 in1032.8 mb 0.00 in0.0 mm 0.00 in0.0 mm 0.00 in0.0 mm
07:05 PM 47.1°F8.4°C 24.6°F-4.1°C 41% Calm Calm -- 30.50 in1032.8 mb 0.00 in0.0 mm 0.00 in0.0 mm 0.00 in0.0 mm
07:10 PM 46.6°F8.1°C 25.3°F-3.7°C 43% Calm Calm -- 30.50 in1032.8 mb 0.00 in0.0 mm 0.00 in0.0 mm 0.00 in0.0 mm
07:15 PM 46.2°F7.9°C 25.0°F-3.9°C 43% Calm Calm -- 30.50 in1032.8 mb 0.00 in0.0 mm 0.00 in0.0 mm 0.00 in0.0 mm
07:20 PM 45.7°F7.6°C 25.1°F-3.8°C 44% Calm Calm -- 30.51 in1033.2 mb 0.00 in0.0 mm 0.00 in0.0 mm 0.00 in0.0 mm
07:25 PM 45.3°F7.4°C 25.2°F-3.8°C 45% Calm Calm -- 30.51 in1033.2 mb 0.00 in0.0 mm 0.00 in0.0 mm 0.00 in0.0 mm
07:30 PM 45.1°F7.3°C 25.1°F-3.8°C 45% Calm Calm -- 30.50 in1032.8 mb 0.00 in0.0 mm 0.00 in0.0 mm 0.00 in0.0 mm
07:35 PM 44.8°F7.1°C 24.8°F-4.0°C 45% Calm Calm -- 30.50 in1032.8 mb 0.00 in0.0 mm 0.00 in0.0 mm 0.00 in0.0 mm
07:40 PM 44.5°F6.9°C 24.5°F-4.2°C 45% Calm Calm -- 30.51 in1033.2 mb 0.00 in0.0 mm 0.00 in0.0 mm 0.00 in0.0 mm
07:45 PM 44.0°F6.7°C 25.1°F-3.8°C 47% Calm Calm -- 30.51 in1033.2 mb 0.00 in0.0 mm 0.00 in0.0 mm 0.00 in0.0 mm
07:50 PM 43.9°F6.6°C 24.5°F-4.2°C 46% Calm Calm -- 30.51 in1033.2 mb 0.00 in0.0 mm 0.00 in0.0 mm 0.00 in0.0 mm
07:55 PM 43.8°F6.6°C 24.9°F-3.9°C 47% Calm Calm -- 30.51 in1033.2 mb 0.00 in0.0 mm 0.00 in0.0 mm 0.00 in0.0 mm
08:00 PM 43.4°F6.3°C 24.5°F-4.2°C 47% Calm Calm -- 30.51 in1033.2 mb 0.00 in0.0 mm 0.00 in0.0 mm 0.00 in0.0 mm
08:05 PM 43.3°F6.3°C 24.9°F-3.9°C 48% Calm Calm -- 30.51 in1033.2 mb 0.00 in0.0 mm 0.00 in0.0 mm 0.00 in0.0 mm
08:15 PM 42.5°F5.8°C 25.7°F-3.5°C 51% Calm Calm -- 30.51 in1033.2 mb 0.00 in0.0 mm 0.00 in0.0 mm 0.00 in0.0 mm
08:25 PM 42.4°F5.8°C 26.0°F-3.3°C 52% Calm Calm -- 30.52 in1033.5 mb 0.00 in0.0 mm 0.00 in0.0 mm 0.00 in0.0 mm
08:35 PM 42.2°F5.7°C 25.9°F-3.4°C 52% Calm Calm -- 30.52 in1033.5 mb 0.00 in0.0 mm 0.00 in0.0 mm 0.00 in0.0 mm
08:40 PM 42.1°F5.6°C 26.2°F-3.2°C 53% Calm Calm -- 30.52 in1033.5 mb 0.00 in0.0 mm 0.00 in0.0 mm 0.00 in0.0 mm
08:55 PM 41.2°F5.1°C 27.6°F-2.4°C 58% Calm Calm -- 30.52 in1033.5 mb 0.00 in0.0 mm 0.00 in0.0 mm 0.00 in0.0 mm
09:00 PM 41.1°F5.1°C 27.5°F-2.5°C 58% Calm Calm -- 30.53 in1033.9 mb 0.00 in0.0 mm 0.00 in0.0 mm 0.00 in0.0 mm
09:10 PM 41.0°F5.0°C 26.5°F-3.1°C 56% Calm Calm 1.0 mph1.6 kmh 30.53 in1033.9 mb 0.00 in0.0 mm 0.00 in0.0 mm 0.00 in0.0 mm
09:20 PM 39.6°F4.2°C 27.7°F-2.4°C 62% Calm Calm -- 30.53 in1033.9 mb 0.00 in0.0 mm 0.00 in0.0 mm 0.00 in0.0 mm
09:45 PM 39.0°F3.9°C 25.9°F-3.4°C 59% 1.0 mph SSW1.6 kmh SSW 3.0 mph4.8 kmh 30.54 in1034.2 mb 0.00 in0.0 mm 0.00 in0.0 mm 0.00 in0.0 mm
10:05 PM 38.1°F3.4°C 25.9°F-3.4°C 61% Calm Calm -- 30.54 in1034.2 mb 0.00 in0.0 mm 0.00 in0.0 mm 0.00 in0.0 mm
10:25 PM 36.6°F2.6°C 25.6°F-3.6°C 64% Calm Calm 2.0 mph3.2 kmh 30.55 in1034.5 mb 0.00 in0.0 mm 0.00 in0.0 mm 0.00 in0.0 mm
10:40 PM 36.6°F2.6°C 25.6°F-3.6°C 64% Calm Calm 2.0 mph3.2 kmh 30.55 in1034.5 mb 0.00 in0.0 mm 0.00 in0.0 mm 0.00 in0.0 mm
11:00 PM 37.4°F3.0°C 25.6°F-3.6°C 62% 1.0 mph WNW1.6 kmh WNW 1.0 mph1.6 kmh 30.56 in1034.9 mb 0.00 in0.0 mm 0.00 in0.0 mm 0.00 in0.0 mm
11:15 PM 37.6°F3.1°C 25.0°F-3.9°C 60% Calm Calm 2.0 mph3.2 kmh 30.56 in1034.9 mb 0.00 in0.0 mm 0.00 in0.0 mm 0.00 in0.0 mm
11:25 PM 37.2°F2.9°C 25.4°F-3.7°C 62% Calm Calm -- 30.56 in1034.9 mb 0.00 in0.0 mm 0.00 in0.0 mm 0.00 in0.0 mm
11:35 PM 37.3°F2.9°C 25.5°F-3.6°C 62% Calm Calm 1.0 mph1.6 kmh 30.57 in1035.2 mb 0.00 in0.0 mm 0.00 in0.0 mm 0.00 in0.0 mm
11:50 PM 35.8°F2.1°C 24.8°F-4.0°C 64% Calm Calm -- 30.57 in1035.2 mb 0.00 in0.0 mm 0.00 in0.0 mm 0.00 in0.0 mm